Show-me-state — WDH6465 — position and weather

sailwx.info

Track history (hours):
 
Tides and Currents Weather Stations Pressure Air Temp Water Temp Dewpoint Dewpoint Depression Visibility Wind Speed Wind Dir Waves Ship Positions

Show-me-state

Owner: Marquette Transportation Co. LLC, Paducah, KY. More information available from US FCC via Universal Licensing System and Coast Guard Vessel Documentation Center.

Last reported at 2018-May-04 07:00 UTC. Time now 2018-Jun-19 08:22 UTC.
Position N 39°09' W 090°43'.
Warning: this ship's position is 46 days out of date.

Length 42 m; draft 2.9 m.

Type: Towing. MMSI: 367638250.

Date/timePositionNaut miles runAvg speedWind from/ knotsBaromVisibWave heightAir tempDewpointWater temp
2018-May-04 07:00N 39°09' W 090°43'2 4.5
2018-May-04 06:29N 39°07' W 090°41'1 2.5
2018-May-04 05:58N 39°06' W 090°41'2 2.5
2018-May-04 05:20N 39°04' W 090°42'2 5.2
2018-May-04 05:00N 39°03' W 090°43'3 5.1
2018-May-04 04:31N 39°00' W 090°41'0 0.5
2018-May-04 04:00N 39°00' W 090°41'0 0.2
2018-May-04 03:29N 39°00' W 090°41'1 2.0
2018-May-04 02:55N 38°59' W 090°40'0 0.6
2018-May-04 02:27N 38°59' W 090°40'1 1.8
2018-May-04 01:41N 38°57' W 090°40'0 0.3
2018-May-04 01:30N 38°57' W 090°40'0 0.0
2018-May-04 00:53N 38°57' W 090°40'0 0.0
2018-May-04 00:29N 38°57' W 090°40'0 0.0
2018-May-03 23:59N 38°57' W 090°40'0 0.0
2018-May-03 23:30N 38°57' W 090°40'0 0.0
2018-May-03 23:01N 38°57' W 090°40'0 0.0
2018-May-03 22:30N 38°57' W 090°40'0 0.0
2018-May-03 22:00N 38°57' W 090°40'0 0.1
2018-May-03 21:30N 38°57' W 090°40'3 6.0
2018-May-03 21:01N 38°55' W 090°39'3 6.5
2018-May-03 20:31N 38°52' W 090°36'3 6.0
2018-May-03 20:00N 38°53' W 090°32'1 2.3
2018-May-03 19:31N 38°53' W 090°32'3 6.6
2018-May-03 19:00N 38°56' W 090°29'3 6.3
2018-May-03 18:30N 38°58' W 090°26'3 6.5
2018-May-03 18:01N 38°57' W 090°22'3 6.0
2018-May-03 17:31N 38°55' W 090°18'3 5.5
2018-May-03 17:00N 38°55' W 090°15'3 5.5
2018-May-03 16:31N 38°54' W 090°12'3 5.0
2018-May-03 16:00N 38°52' W 090°09'1 1.2
2018-May-03 15:30N 38°52' W 090°09'1 2.0
2018-May-03 15:01N 38°51' W 090°07'0 0.0
2018-May-03 14:31N 38°51' W 090°07'0 0.0
2018-May-03 14:00N 38°51' W 090°07'0 0.0
2018-May-03 13:31N 38°51' W 090°07'0 0.0
2018-May-03 13:01N 38°51' W 090°07'0 0.0
2018-May-03 12:31N 38°51' W 090°07'1 1.5
2018-May-03 12:00N 38°51' W 090°07'3 5.0
2018-May-03 11:31N 38°48' W 090°07'4 6.6
2018-May-03 10:52N 38°45' W 090°09'2 6.6
2018-May-03 10:30N 38°43' W 090°11'1 1.8
2018-May-03 10:00N 38°42' W 090°11'0 0.4
2018-May-03 09:30N 38°42' W 090°11'2 4.7
2018-May-03 09:00N 38°39' W 090°11'1 2.0
2018-May-03 08:30N 38°38' W 090°11'3 6.0
2018-May-03 07:59N 38°35' W 090°12'3 2.7
2018-May-03 06:46N 38°33' W 090°15'  
2018-Apr-27 04:34N 38°35' W 090°13'0 0.0
2018-Apr-27 04:05N 38°35' W 090°13'6 3.6
2018-Apr-27 02:32N 38°40' W 090°11'1 8.6
2018-Apr-27 02:28N 38°40' W 090°11'3 2.1
2018-Apr-27 00:59N 38°43' W 090°10'1 0.6
2018-Apr-26 23:57N 38°44' W 090°10'4 2.2
2018-Apr-26 22:04N 38°48' W 090°07'1 8.1
2018-Apr-26 22:00N 38°48' W 090°07'3 6.1
2018-Apr-26 21:26N 38°52' W 090°08'1 2.3
2018-Apr-26 20:58N 38°52' W 090°09'0 0.5
2018-Apr-26 20:31N 38°52' W 090°09'3 5.0
2018-Apr-26 20:01N 38°54' W 090°12'2 3.1
2018-Apr-26 19:31N 38°55' W 090°13'0 0.0
2018-Apr-26 19:01N 38°55' W 090°13'0 0.0
2018-Apr-26 18:31N 38°55' W 090°13'0 0.0
2018-Apr-26 18:01N 38°55' W 090°13'0 0.9
2018-Apr-26 17:31N 38°55' W 090°14'4 7.4
2018-Apr-26 17:00N 38°55' W 090°19'4 7.9
2018-Apr-26 16:30N 38°57' W 090°23'4 7.4
2018-Apr-26 16:01N 38°57' W 090°28'4 7.3
2018-Apr-26 15:30N 38°55' W 090°31'3 6.7
2018-Apr-26 15:01N 38°52' W 090°34'3 6.7
2018-Apr-26 14:30N 38°54' W 090°38'3 6.9
2018-Apr-26 14:00N 38°57' W 090°40'4 7.2
2018-Apr-26 13:31N 39°00' W 090°41'0 0.2
2018-Apr-26 13:00N 39°00' W 090°41'0 0.2
2018-Apr-26 12:31N 39°00' W 090°41'0 0.0
2018-Apr-26 12:01N 39°00' W 090°41'1 2.0
2018-Apr-26 11:30N 39°01' W 090°42'2 3.6
2018-Apr-26 11:00N 39°03' W 090°43'0 0.0
2018-Apr-26 10:30N 39°03' W 090°43'0 0.0
2018-Apr-26 10:01N 39°03' W 090°43'0 0.0
2018-Apr-26 09:31N 39°03' W 090°43'0 0.0
2018-Apr-26 09:01N 39°03' W 090°43'0 0.0
2018-Apr-26 08:31N 39°03' W 090°43'0 0.8
2018-Apr-26 08:01N 39°03' W 090°43'1 1.1
2018-Apr-26 07:29N 39°04' W 090°43'0 0.0
2018-Apr-26 07:00N 39°04' W 090°43'0 0.0
2018-Apr-26 06:30N 39°04' W 090°43'0 0.0
2018-Apr-26 05:59N 39°04' W 090°43'0 0.0
2018-Apr-26 05:30N 39°04' W 090°43'0 0.4
2018-Apr-26 05:00N 39°04' W 090°42'3 5.8
2018-Apr-26 04:31N 39°07' W 090°41'  
Track history (hours):
 
Tides and Currents Weather Stations Pressure Air Temp Water Temp Dewpoint Dewpoint Depression Visibility Wind Speed Wind Dir Waves Ship Positions

Show-me-state

Owner: Marquette Transportation Co. LLC, Paducah, KY. More information available from US FCC via Universal Licensing System and Coast Guard Vessel Documentation Center.

Last reported at 2018-May-04 07:00 UTC. Time now 2018-Jun-19 08:22 UTC.
Position N 39°09' W 090°43'.
Warning: this ship's position is 46 days out of date.

Length 42 m; draft 2.9 m.

Type: Towing. MMSI: 367638250.

Date/timePositionNaut miles runAvg speedWind from/ knotsBaromVisibWave heightAir tempDewpointWater temp
2018-May-04 07:00N 39°09' W 090°43'2 4.5
2018-May-04 06:29N 39°07' W 090°41'1 2.5
2018-May-04 05:58N 39°06' W 090°41'2 2.5
2018-May-04 05:20N 39°04' W 090°42'2 5.2
2018-May-04 05:00N 39°03' W 090°43'3 5.1
2018-May-04 04:31N 39°00' W 090°41'0 0.5
2018-May-04 04:00N 39°00' W 090°41'0 0.2
2018-May-04 03:29N 39°00' W 090°41'1 2.0
2018-May-04 02:55N 38°59' W 090°40'0 0.6
2018-May-04 02:27N 38°59' W 090°40'1 1.8
2018-May-04 01:41N 38°57' W 090°40'0 0.3
2018-May-04 01:30N 38°57' W 090°40'0 0.0
2018-May-04 00:53N 38°57' W 090°40'0 0.0
2018-May-04 00:29N 38°57' W 090°40'0 0.0
2018-May-03 23:59N 38°57' W 090°40'0 0.0
2018-May-03 23:30N 38°57' W 090°40'0 0.0
2018-May-03 23:01N 38°57' W 090°40'0 0.0
2018-May-03 22:30N 38°57' W 090°40'0 0.0
2018-May-03 22:00N 38°57' W 090°40'0 0.1
2018-May-03 21:30N 38°57' W 090°40'3 6.0
2018-May-03 21:01N 38°55' W 090°39'3 6.5
2018-May-03 20:31N 38°52' W 090°36'3 6.0
2018-May-03 20:00N 38°53' W 090°32'1 2.3
2018-May-03 19:31N 38°53' W 090°32'3 6.6
2018-May-03 19:00N 38°56' W 090°29'3 6.3
2018-May-03 18:30N 38°58' W 090°26'3 6.5
2018-May-03 18:01N 38°57' W 090°22'3 6.0
2018-May-03 17:31N 38°55' W 090°18'3 5.5
2018-May-03 17:00N 38°55' W 090°15'3 5.5
2018-May-03 16:31N 38°54' W 090°12'3 5.0
2018-May-03 16:00N 38°52' W 090°09'1 1.2
2018-May-03 15:30N 38°52' W 090°09'1 2.0
2018-May-03 15:01N 38°51' W 090°07'0 0.0
2018-May-03 14:31N 38°51' W 090°07'0 0.0
2018-May-03 14:00N 38°51' W 090°07'0 0.0
2018-May-03 13:31N 38°51' W 090°07'0 0.0
2018-May-03 13:01N 38°51' W 090°07'0 0.0
2018-May-03 12:31N 38°51' W 090°07'1 1.5
2018-May-03 12:00N 38°51' W 090°07'3 5.0
2018-May-03 11:31N 38°48' W 090°07'4 6.6
2018-May-03 10:52N 38°45' W 090°09'2 6.6
2018-May-03 10:30N 38°43' W 090°11'1 1.8
2018-May-03 10:00N 38°42' W 090°11'0 0.4
2018-May-03 09:30N 38°42' W 090°11'2 4.7
2018-May-03 09:00N 38°39' W 090°11'1 2.0
2018-May-03 08:30N 38°38' W 090°11'3 6.0
2018-May-03 07:59N 38°35' W 090°12'3 2.7
2018-May-03 06:46N 38°33' W 090°15'  
2018-Apr-27 04:34N 38°35' W 090°13'0 0.0
2018-Apr-27 04:05N 38°35' W 090°13'6 3.6
2018-Apr-27 02:32N 38°40' W 090°11'1 8.6
2018-Apr-27 02:28N 38°40' W 090°11'3 2.1
2018-Apr-27 00:59N 38°43' W 090°10'1 0.6
2018-Apr-26 23:57N 38°44' W 090°10'4 2.2
2018-Apr-26 22:04N 38°48' W 090°07'1 8.1
2018-Apr-26 22:00N 38°48' W 090°07'3 6.1
2018-Apr-26 21:26N 38°52' W 090°08'1 2.3
2018-Apr-26 20:58N 38°52' W 090°09'0 0.5
2018-Apr-26 20:31N 38°52' W 090°09'3 5.0
2018-Apr-26 20:01N 38°54' W 090°12'2 3.1
2018-Apr-26 19:31N 38°55' W 090°13'0 0.0
2018-Apr-26 19:01N 38°55' W 090°13'0 0.0
2018-Apr-26 18:31N 38°55' W 090°13'0 0.0
2018-Apr-26 18:01N 38°55' W 090°13'0 0.9
2018-Apr-26 17:31N 38°55' W 090°14'4 7.4
2018-Apr-26 17:00N 38°55' W 090°19'4 7.9
2018-Apr-26 16:30N 38°57' W 090°23'4 7.4
2018-Apr-26 16:01N 38°57' W 090°28'4 7.3
2018-Apr-26 15:30N 38°55' W 090°31'3 6.7
2018-Apr-26 15:01N 38°52' W 090°34'3 6.7
2018-Apr-26 14:30N 38°54' W 090°38'3 6.9
2018-Apr-26 14:00N 38°57' W 090°40'4 7.2
2018-Apr-26 13:31N 39°00' W 090°41'0 0.2
2018-Apr-26 13:00N 39°00' W 090°41'0 0.2
2018-Apr-26 12:31N 39°00' W 090°41'0 0.0
2018-Apr-26 12:01N 39°00' W 090°41'1 2.0
2018-Apr-26 11:30N 39°01' W 090°42'2 3.6
2018-Apr-26 11:00N 39°03' W 090°43'0 0.0
2018-Apr-26 10:30N 39°03' W 090°43'0 0.0
2018-Apr-26 10:01N 39°03' W 090°43'0 0.0
2018-Apr-26 09:31N 39°03' W 090°43'0 0.0
2018-Apr-26 09:01N 39°03' W 090°43'0 0.0
2018-Apr-26 08:31N 39°03' W 090°43'0 0.8
2018-Apr-26 08:01N 39°03' W 090°43'1 1.1
2018-Apr-26 07:29N 39°04' W 090°43'0 0.0
2018-Apr-26 07:00N 39°04' W 090°43'0 0.0
2018-Apr-26 06:30N 39°04' W 090°43'0 0.0
2018-Apr-26 05:59N 39°04' W 090°43'0 0.0
2018-Apr-26 05:30N 39°04' W 090°43'0 0.4
2018-Apr-26 05:00N 39°04' W 090°42'3 5.8
2018-Apr-26 04:31N 39°07' W 090°41'  

Dump ship's entire track history